sensor_id;sensor_type;location;lat;lon;timestamp;P1;durP1;ratioP1;P2;durP2;ratioP2
11879;SDS011;5999;43.256;27.816;2022-08-19T00:01:46;11.70;;;8.63;;
11879;SDS011;5999;43.256;27.816;2022-08-19T00:04:16;11.10;;;8.25;;
11879;SDS011;5999;43.256;27.816;2022-08-19T00:06:45;10.68;;;8.82;;
11879;SDS011;5999;43.256;27.816;2022-08-19T00:09:13;11.02;;;8.45;;
11879;SDS011;5999;43.256;27.816;2022-08-19T00:11:42;9.48;;;8.23;;
11879;SDS011;5999;43.256;27.816;2022-08-19T00:14:11;11.55;;;8.18;;
11879;SDS011;5999;43.256;27.816;2022-08-19T00:16:41;10.93;;;8.15;;
11879;SDS011;5999;43.256;27.816;2022-08-19T00:19:13;12.43;;;7.97;;
11879;SDS011;5999;43.256;27.816;2022-08-19T00:21:41;10.93;;;8.73;;
11879;SDS011;5999;43.256;27.816;2022-08-19T00:24:09;14.25;;;8.50;;
11879;SDS011;5999;43.256;27.816;2022-08-19T00:26:37;12.38;;;9.10;;
11879;SDS011;5999;43.256;27.816;2022-08-19T00:29:06;10.60;;;9.00;;
11879;SDS011;5999;43.256;27.816;2022-08-19T00:31:34;11.77;;;9.00;;
11879;SDS011;5999;43.256;27.816;2022-08-19T00:34:02;16.08;;;9.23;;
11879;SDS011;5999;43.256;27.816;2022-08-19T00:36:29;11.00;;;8.50;;
11879;SDS011;5999;43.256;27.816;2022-08-19T00:38:58;11.85;;;8.52;;
11879;SDS011;5999;43.256;27.816;2022-08-19T00:41:25;14.43;;;9.48;;
11879;SDS011;5999;43.256;27.816;2022-08-19T00:43:59;14.18;;;9.02;;
11879;SDS011;5999;43.256;27.816;2022-08-19T00:46:28;10.23;;;8.48;;
11879;SDS011;5999;43.256;27.816;2022-08-19T00:48:55;12.63;;;9.30;;
11879;SDS011;5999;43.256;27.816;2022-08-19T00:51:23;16.90;;;9.60;;
11879;SDS011;5999;43.256;27.816;2022-08-19T00:53:51;13.93;;;9.35;;
11879;SDS011;5999;43.256;27.816;2022-08-19T00:56:20;13.20;;;9.00;;
11879;SDS011;5999;43.256;27.816;2022-08-19T00:58:48;19.60;;;9.05;;
11879;SDS011;5999;43.256;27.816;2022-08-19T01:01:15;13.98;;;9.93;;
11879;SDS011;5999;43.256;27.816;2022-08-19T01:03:42;12.85;;;9.07;;
11879;SDS011;5999;43.256;27.816;2022-08-19T01:06:09;13.65;;;8.98;;
11879;SDS011;5999;43.256;27.816;2022-08-19T01:08:36;13.82;;;8.93;;
11879;SDS011;5999;43.256;27.816;2022-08-19T01:11:03;13.23;;;9.07;;
11879;SDS011;5999;43.256;27.816;2022-08-19T01:13:32;11.57;;;8.65;;
11879;SDS011;5999;43.256;27.816;2022-08-19T01:16:00;11.40;;;8.32;;
11879;SDS011;5999;43.256;27.816;2022-08-19T01:18:30;18.15;;;8.23;;
11879;SDS011;5999;43.256;27.816;2022-08-19T01:21:02;10.70;;;8.35;;
11879;SDS011;5999;43.256;27.816;2022-08-19T01:23:33;13.40;;;8.25;;
11879;SDS011;5999;43.256;27.816;2022-08-19T01:26:13;9.93;;;8.35;;
11879;SDS011;5999;43.256;27.816;2022-08-19T01:28:42;15.15;;;8.50;;
11879;SDS011;5999;43.256;27.816;2022-08-19T01:31:12;10.82;;;8.40;;
11879;SDS011;5999;43.256;27.816;2022-08-19T01:33:43;11.60;;;7.90;;
11879;SDS011;5999;43.256;27.816;2022-08-19T01:36:13;11.38;;;8.20;;
11879;SDS011;5999;43.256;27.816;2022-08-19T01:38:48;10.18;;;8.48;;
11879;SDS011;5999;43.256;27.816;2022-08-19T01:41:15;12.02;;;8.35;;
11879;SDS011;5999;43.256;27.816;2022-08-19T01:43:44;10.10;;;8.40;;
11879;SDS011;5999;43.256;27.816;2022-08-19T01:46:11;15.80;;;8.18;;
11879;SDS011;5999;43.256;27.816;2022-08-19T01:48:40;11.30;;;8.27;;
11879;SDS011;5999;43.256;27.816;2022-08-19T01:51:08;13.27;;;8.55;;
11879;SDS011;5999;43.256;27.816;2022-08-19T01:53:36;11.13;;;8.45;;
11879;SDS011;5999;43.256;27.816;2022-08-19T01:56:05;10.05;;;8.27;;
11879;SDS011;5999;43.256;27.816;2022-08-19T01:58:34;9.93;;;8.70;;
11879;SDS011;5999;43.256;27.816;2022-08-19T02:01:05;10.57;;;8.10;;
11879;SDS011;5999;43.256;27.816;2022-08-19T02:03:33;11.05;;;8.68;;
11879;SDS011;5999;43.256;27.816;2022-08-19T02:06:01;11.85;;;8.30;;
11879;SDS011;5999;43.256;27.816;2022-08-19T02:08:31;11.35;;;8.00;;
11879;SDS011;5999;43.256;27.816;2022-08-19T02:11:00;9.90;;;8.18;;
11879;SDS011;5999;43.256;27.816;2022-08-19T02:13:28;14.65;;;8.63;;
11879;SDS011;5999;43.256;27.816;2022-08-19T02:15:55;12.00;;;8.43;;
11879;SDS011;5999;43.256;27.816;2022-08-19T02:18:22;12.43;;;8.88;;
11879;SDS011;5999;43.256;27.816;2022-08-19T02:20:49;11.80;;;8.73;;
11879;SDS011;5999;43.256;27.816;2022-08-19T02:23:16;10.38;;;8.60;;
11879;SDS011;5999;43.256;27.816;2022-08-19T02:25:44;11.82;;;8.23;;
11879;SDS011;5999;43.256;27.816;2022-08-19T02:28:12;9.63;;;8.10;;
11879;SDS011;5999;43.256;27.816;2022-08-19T02:30:40;14.32;;;8.82;;
11879;SDS011;5999;43.256;27.816;2022-08-19T02:33:08;12.07;;;8.02;;
11879;SDS011;5999;43.256;27.816;2022-08-19T02:35:35;11.27;;;9.13;;
11879;SDS011;5999;43.256;27.816;2022-08-19T02:38:02;12.75;;;9.02;;
11879;SDS011;5999;43.256;27.816;2022-08-19T02:40:50;11.45;;;8.52;;
11879;SDS011;5999;43.256;27.816;2022-08-19T02:43:19;13.27;;;8.50;;
11879;SDS011;5999;43.256;27.816;2022-08-19T02:45:47;13.30;;;8.55;;
11879;SDS011;5999;43.256;27.816;2022-08-19T02:48:15;15.88;;;8.23;;
11879;SDS011;5999;43.256;27.816;2022-08-19T02:50:43;13.82;;;8.43;;
11879;SDS011;5999;43.256;27.816;2022-08-19T02:53:10;13.77;;;9.88;;
11879;SDS011;5999;43.256;27.816;2022-08-19T02:55:41;13.68;;;9.18;;
11879;SDS011;5999;43.256;27.816;2022-08-19T02:58:10;11.07;;;9.32;;
11879;SDS011;5999;43.256;27.816;2022-08-19T03:00:40;11.57;;;8.95;;
11879;SDS011;5999;43.256;27.816;2022-08-19T03:03:09;10.15;;;8.15;;
11879;SDS011;5999;43.256;27.816;2022-08-19T03:05:36;12.48;;;8.88;;
11879;SDS011;5999;43.256;27.816;2022-08-19T03:08:03;11.40;;;9.15;;
11879;SDS011;5999;43.256;27.816;2022-08-19T03:10:31;13.10;;;8.98;;
11879;SDS011;5999;43.256;27.816;2022-08-19T03:13:01;10.68;;;8.95;;
11879;SDS011;5999;43.256;27.816;2022-08-19T03:15:28;14.18;;;9.68;;
11879;SDS011;5999;43.256;27.816;2022-08-19T03:17:55;14.45;;;9.68;;
11879;SDS011;5999;43.256;27.816;2022-08-19T03:20:22;12.70;;;8.85;;
11879;SDS011;5999;43.256;27.816;2022-08-19T03:22:50;10.88;;;8.77;;
11879;SDS011;5999;43.256;27.816;2022-08-19T03:25:17;15.10;;;9.40;;
11879;SDS011;5999;43.256;27.816;2022-08-19T03:27:44;12.85;;;8.93;;
11879;SDS011;5999;43.256;27.816;2022-08-19T03:30:14;13.25;;;8.98;;
11879;SDS011;5999;43.256;27.816;2022-08-19T03:32:41;12.07;;;8.80;;
11879;SDS011;5999;43.256;27.816;2022-08-19T03:35:07;13.00;;;9.25;;
11879;SDS011;5999;43.256;27.816;2022-08-19T03:37:35;14.68;;;9.13;;
11879;SDS011;5999;43.256;27.816;2022-08-19T03:40:02;12.75;;;9.35;;
11879;SDS011;5999;43.256;27.816;2022-08-19T03:42:30;13.20;;;9.68;;
11879;SDS011;5999;43.256;27.816;2022-08-19T03:44:56;13.77;;;9.63;;
11879;SDS011;5999;43.256;27.816;2022-08-19T03:47:23;13.75;;;10.13;;
11879;SDS011;5999;43.256;27.816;2022-08-19T03:49:50;15.10;;;9.50;;
11879;SDS011;5999;43.256;27.816;2022-08-19T03:52:17;11.48;;;9.40;;
11879;SDS011;5999;43.256;27.816;2022-08-19T03:54:45;16.20;;;10.18;;
11879;SDS011;5999;43.256;27.816;2022-08-19T03:57:12;12.32;;;9.38;;
11879;SDS011;5999;43.256;27.816;2022-08-19T03:59:39;13.10;;;9.30;;
11879;SDS011;5999;43.256;27.816;2022-08-19T04:02:07;15.63;;;9.43;;
11879;SDS011;5999;43.256;27.816;2022-08-19T04:04:36;11.77;;;9.05;;
11879;SDS011;5999;43.256;27.816;2022-08-19T04:07:03;14.40;;;10.13;;
11879;SDS011;5999;43.256;27.816;2022-08-19T04:09:32;14.90;;;9.80;;
11879;SDS011;5999;43.256;27.816;2022-08-19T04:12:02;18.30;;;11.07;;
11879;SDS011;5999;43.256;27.816;2022-08-19T04:14:30;16.38;;;9.77;;
11879;SDS011;5999;43.256;27.816;2022-08-19T04:16:59;17.80;;;9.68;;
11879;SDS011;5999;43.256;27.816;2022-08-19T04:19:29;13.10;;;9.63;;
11879;SDS011;5999;43.256;27.816;2022-08-19T04:21:56;13.25;;;9.27;;
11879;SDS011;5999;43.256;27.816;2022-08-19T04:24:24;11.80;;;9.18;;
11879;SDS011;5999;43.256;27.816;2022-08-19T04:26:51;15.23;;;10.30;;
11879;SDS011;5999;43.256;27.816;2022-08-19T04:29:20;14.27;;;9.45;;
11879;SDS011;5999;43.256;27.816;2022-08-19T04:31:50;16.65;;;10.13;;
11879;SDS011;5999;43.256;27.816;2022-08-19T04:34:20;18.65;;;9.38;;
11879;SDS011;5999;43.256;27.816;2022-08-19T04:36:48;14.93;;;9.02;;
11879;SDS011;5999;43.256;27.816;2022-08-19T04:39:18;12.93;;;8.73;;
11879;SDS011;5999;43.256;27.816;2022-08-19T04:41:46;17.10;;;8.35;;
11879;SDS011;5999;43.256;27.816;2022-08-19T04:44:33;12.30;;;7.80;;
11879;SDS011;5999;43.256;27.816;2022-08-19T04:47:01;11.63;;;8.75;;
11879;SDS011;5999;43.256;27.816;2022-08-19T04:49:30;12.00;;;8.75;;
11879;SDS011;5999;43.256;27.816;2022-08-19T04:51:57;14.07;;;8.35;;
11879;SDS011;5999;43.256;27.816;2022-08-19T04:54:24;11.15;;;8.90;;
11879;SDS011;5999;43.256;27.816;2022-08-19T04:56:52;15.23;;;8.98;;
11879;SDS011;5999;43.256;27.816;2022-08-19T04:59:19;11.30;;;8.48;;
11879;SDS011;5999;43.256;27.816;2022-08-19T05:01:47;10.35;;;8.27;;
11879;SDS011;5999;43.256;27.816;2022-08-19T05:04:15;11.75;;;7.97;;
11879;SDS011;5999;43.256;27.816;2022-08-19T05:06:44;11.90;;;8.13;;
11879;SDS011;5999;43.256;27.816;2022-08-19T05:09:12;12.60;;;7.97;;
11879;SDS011;5999;43.256;27.816;2022-08-19T05:11:40;12.57;;;7.43;;
11879;SDS011;5999;43.256;27.816;2022-08-19T05:14:08;10.20;;;7.80;;
11879;SDS011;5999;43.256;27.816;2022-08-19T05:16:37;13.02;;;8.85;;
11879;SDS011;5999;43.256;27.816;2022-08-19T05:19:05;16.67;;;8.55;;
11879;SDS011;5999;43.256;27.816;2022-08-19T05:21:50;11.50;;;7.82;;
11879;SDS011;5999;43.256;27.816;2022-08-19T05:24:35;11.82;;;7.97;;
11879;SDS011;5999;43.256;27.816;2022-08-19T05:27:02;13.63;;;8.32;;
11879;SDS011;5999;43.256;27.816;2022-08-19T05:29:31;10.05;;;7.85;;
11879;SDS011;5999;43.256;27.816;2022-08-19T05:31:59;12.32;;;7.85;;
11879;SDS011;5999;43.256;27.816;2022-08-19T05:34:27;14.35;;;7.90;;
11879;SDS011;5999;43.256;27.816;2022-08-19T05:36:55;11.68;;;7.55;;
11879;SDS011;5999;43.256;27.816;2022-08-19T05:39:24;12.75;;;8.48;;
11879;SDS011;5999;43.256;27.816;2022-08-19T05:41:54;14.30;;;8.40;;
11879;SDS011;5999;43.256;27.816;2022-08-19T05:44:23;11.32;;;7.70;;
11879;SDS011;5999;43.256;27.816;2022-08-19T05:46:52;12.93;;;7.40;;
11879;SDS011;5999;43.256;27.816;2022-08-19T05:49:20;11.07;;;8.18;;
11879;SDS011;5999;43.256;27.816;2022-08-19T05:51:49;10.02;;;8.30;;
11879;SDS011;5999;43.256;27.816;2022-08-19T05:54:17;8.40;;;7.40;;
11879;SDS011;5999;43.256;27.816;2022-08-19T05:56:44;9.57;;;7.18;;
11879;SDS011;5999;43.256;27.816;2022-08-19T05:59:13;9.38;;;8.00;;
11879;SDS011;5999;43.256;27.816;2022-08-19T06:01:42;11.27;;;7.68;;
11879;SDS011;5999;43.256;27.816;2022-08-19T06:04:11;14.10;;;7.85;;
11879;SDS011;5999;43.256;27.816;2022-08-19T06:06:40;11.40;;;7.68;;
11879;SDS011;5999;43.256;27.816;2022-08-19T06:09:07;9.88;;;7.68;;
11879;SDS011;5999;43.256;27.816;2022-08-19T06:11:36;11.15;;;7.82;;
11879;SDS011;5999;43.256;27.816;2022-08-19T06:14:06;12.90;;;7.65;;
11879;SDS011;5999;43.256;27.816;2022-08-19T06:16:35;11.60;;;7.50;;
11879;SDS011;5999;43.256;27.816;2022-08-19T06:19:04;9.32;;;7.55;;
11879;SDS011;5999;43.256;27.816;2022-08-19T06:21:33;12.82;;;8.02;;
11879;SDS011;5999;43.256;27.816;2022-08-19T06:24:02;12.23;;;7.28;;
11879;SDS011;5999;43.256;27.816;2022-08-19T06:26:31;13.95;;;7.38;;
11879;SDS011;5999;43.256;27.816;2022-08-19T06:28:59;12.05;;;8.30;;
11879;SDS011;5999;43.256;27.816;2022-08-19T06:31:27;9.88;;;7.03;;
11879;SDS011;5999;43.256;27.816;2022-08-19T06:33:56;9.63;;;7.03;;
11879;SDS011;5999;43.256;27.816;2022-08-19T06:36:25;10.77;;;7.47;;
11879;SDS011;5999;43.256;27.816;2022-08-19T06:38:56;10.23;;;7.60;;
11879;SDS011;5999;43.256;27.816;2022-08-19T06:41:24;10.77;;;7.50;;
11879;SDS011;5999;43.256;27.816;2022-08-19T06:43:52;10.38;;;7.00;;
11879;SDS011;5999;43.256;27.816;2022-08-19T06:46:20;10.30;;;6.57;;
11879;SDS011;5999;43.256;27.816;2022-08-19T06:48:47;10.60;;;6.75;;
11879;SDS011;5999;43.256;27.816;2022-08-19T06:51:15;11.00;;;7.43;;
11879;SDS011;5999;43.256;27.816;2022-08-19T06:53:44;11.93;;;7.03;;
11879;SDS011;5999;43.256;27.816;2022-08-19T06:56:11;8.18;;;7.03;;
11879;SDS011;5999;43.256;27.816;2022-08-19T06:58:39;10.38;;;7.50;;
11879;SDS011;5999;43.256;27.816;2022-08-19T07:01:07;13.32;;;8.88;;
11879;SDS011;5999;43.256;27.816;2022-08-19T07:03:35;12.60;;;6.28;;
11879;SDS011;5999;43.256;27.816;2022-08-19T07:06:04;11.75;;;6.55;;
11879;SDS011;5999;43.256;27.816;2022-08-19T07:08:32;7.65;;;6.60;;
11879;SDS011;5999;43.256;27.816;2022-08-19T07:11:01;15.63;;;7.18;;
11879;SDS011;5999;43.256;27.816;2022-08-19T07:13:31;14.02;;;6.45;;
11879;SDS011;5999;43.256;27.816;2022-08-19T07:16:02;8.98;;;6.55;;
11879;SDS011;5999;43.256;27.816;2022-08-19T07:18:31;10.10;;;7.05;;
11879;SDS011;5999;43.256;27.816;2022-08-19T07:21:02;11.00;;;6.38;;
11879;SDS011;5999;43.256;27.816;2022-08-19T07:23:29;12.93;;;7.30;;
11879;SDS011;5999;43.256;27.816;2022-08-19T07:25:56;9.60;;;6.13;;
11879;SDS011;5999;43.256;27.816;2022-08-19T07:28:23;12.48;;;5.97;;
11879;SDS011;5999;43.256;27.816;2022-08-19T07:30:51;10.38;;;6.15;;
11879;SDS011;5999;43.256;27.816;2022-08-19T07:33:18;9.52;;;5.57;;
11879;SDS011;5999;43.256;27.816;2022-08-19T07:35:45;9.40;;;6.30;;
11879;SDS011;5999;43.256;27.816;2022-08-19T07:38:12;6.63;;;5.10;;
11879;SDS011;5999;43.256;27.816;2022-08-19T07:40:40;8.32;;;5.90;;
11879;SDS011;5999;43.256;27.816;2022-08-19T07:43:08;8.75;;;6.07;;
11879;SDS011;5999;43.256;27.816;2022-08-19T07:45:35;10.13;;;5.93;;
11879;SDS011;5999;43.256;27.816;2022-08-19T07:48:02;12.07;;;5.85;;
11879;SDS011;5999;43.256;27.816;2022-08-19T07:50:29;10.15;;;6.40;;
11879;SDS011;5999;43.256;27.816;2022-08-19T07:53:00;9.82;;;5.65;;
11879;SDS011;5999;43.256;27.816;2022-08-19T07:55:27;11.13;;;7.07;;
11879;SDS011;5999;43.256;27.816;2022-08-19T07:57:54;14.88;;;8.38;;
11879;SDS011;5999;43.256;27.816;2022-08-19T08:00:21;16.02;;;6.45;;
11879;SDS011;5999;43.256;27.816;2022-08-19T08:02:48;15.68;;;7.82;;
11879;SDS011;5999;43.256;27.816;2022-08-19T08:05:15;10.27;;;6.97;;
11879;SDS011;5999;43.256;27.816;2022-08-19T08:08:01;14.10;;;6.05;;
11879;SDS011;5999;43.256;27.816;2022-08-19T08:10:46;8.85;;;5.72;;
11879;SDS011;5999;43.256;27.816;2022-08-19T08:13:13;9.20;;;5.63;;
11879;SDS011;5999;43.256;27.816;2022-08-19T08:15:41;6.72;;;4.55;;
11879;SDS011;5999;43.256;27.816;2022-08-19T08:18:09;9.98;;;5.82;;
11879;SDS011;5999;43.256;27.816;2022-08-19T08:20:37;7.20;;;5.30;;
11879;SDS011;5999;43.256;27.816;2022-08-19T08:23:04;6.28;;;4.70;;
11879;SDS011;5999;43.256;27.816;2022-08-19T08:25:56;8.32;;;4.88;;
11879;SDS011;5999;43.256;27.816;2022-08-19T08:28:24;12.50;;;5.10;;
11879;SDS011;5999;43.256;27.816;2022-08-19T08:30:53;9.80;;;5.57;;
11879;SDS011;5999;43.256;27.816;2022-08-19T08:33:21;8.82;;;5.32;;
11879;SDS011;5999;43.256;27.816;2022-08-19T08:35:49;7.32;;;5.38;;
11879;SDS011;5999;43.256;27.816;2022-08-19T08:38:18;6.20;;;4.80;;
11879;SDS011;5999;43.256;27.816;2022-08-19T08:40:46;7.25;;;4.95;;
11879;SDS011;5999;43.256;27.816;2022-08-19T08:43:22;11.40;;;5.40;;
11879;SDS011;5999;43.256;27.816;2022-08-19T08:45:58;6.45;;;5.15;;
11879;SDS011;5999;43.256;27.816;2022-08-19T08:48:32;28.50;;;6.45;;
11879;SDS011;5999;43.256;27.816;2022-08-19T08:51:03;11.88;;;5.63;;
11879;SDS011;5999;43.256;27.816;2022-08-19T08:53:36;10.75;;;5.10;;
11879;SDS011;5999;43.256;27.816;2022-08-19T08:56:03;6.85;;;5.30;;
11879;SDS011;5999;43.256;27.816;2022-08-19T08:58:39;10.98;;;5.20;;
11879;SDS011;5999;43.256;27.816;2022-08-19T09:01:14;7.00;;;4.95;;
11879;SDS011;5999;43.256;27.816;2022-08-19T09:03:41;15.82;;;5.70;;
11879;SDS011;5999;43.256;27.816;2022-08-19T09:06:12;6.45;;;5.07;;
11879;SDS011;5999;43.256;27.816;2022-08-19T09:08:47;9.48;;;5.03;;
11879;SDS011;5999;43.256;27.816;2022-08-19T09:11:22;7.13;;;5.25;;
11879;SDS011;5999;43.256;27.816;2022-08-19T09:14:06;9.60;;;5.13;;
11879;SDS011;5999;43.256;27.816;2022-08-19T09:16:40;7.63;;;5.10;;
11879;SDS011;5999;43.256;27.816;2022-08-19T09:19:07;8.73;;;5.25;;
11879;SDS011;5999;43.256;27.816;2022-08-19T09:21:35;13.18;;;5.40;;
11879;SDS011;5999;43.256;27.816;2022-08-19T09:24:04;9.02;;;5.47;;
11879;SDS011;5999;43.256;27.816;2022-08-19T09:26:32;6.75;;;4.80;;
11879;SDS011;5999;43.256;27.816;2022-08-19T09:28:59;8.20;;;5.22;;
11879;SDS011;5999;43.256;27.816;2022-08-19T09:31:30;9.55;;;5.63;;
11879;SDS011;5999;43.256;27.816;2022-08-19T09:33:57;7.25;;;5.10;;
11879;SDS011;5999;43.256;27.816;2022-08-19T09:36:27;6.70;;;4.80;;
11879;SDS011;5999;43.256;27.816;2022-08-19T09:38:55;14.38;;;5.30;;
11879;SDS011;5999;43.256;27.816;2022-08-19T09:41:24;15.55;;;5.40;;
11879;SDS011;5999;43.256;27.816;2022-08-19T09:43:53;7.85;;;5.00;;
11879;SDS011;5999;43.256;27.816;2022-08-19T09:46:21;12.60;;;4.78;;
11879;SDS011;5999;43.256;27.816;2022-08-19T09:48:51;13.52;;;5.30;;
11879;SDS011;5999;43.256;27.816;2022-08-19T09:51:19;11.30;;;5.63;;
11879;SDS011;5999;43.256;27.816;2022-08-19T09:53:48;8.15;;;5.30;;
11879;SDS011;5999;43.256;27.816;2022-08-19T09:56:17;7.55;;;4.80;;
11879;SDS011;5999;43.256;27.816;2022-08-19T09:58:46;8.07;;;4.32;;
11879;SDS011;5999;43.256;27.816;2022-08-19T10:01:15;9.07;;;5.07;;
11879;SDS011;5999;43.256;27.816;2022-08-19T10:03:46;10.65;;;5.22;;
11879;SDS011;5999;43.256;27.816;2022-08-19T10:06:15;8.15;;;4.57;;
11879;SDS011;5999;43.256;27.816;2022-08-19T10:08:42;8.57;;;4.70;;
11879;SDS011;5999;43.256;27.816;2022-08-19T10:11:09;9.68;;;4.78;;
11879;SDS011;5999;43.256;27.816;2022-08-19T10:13:37;11.73;;;4.93;;
11879;SDS011;5999;43.256;27.816;2022-08-19T10:16:05;8.85;;;4.80;;
11879;SDS011;5999;43.256;27.816;2022-08-19T10:18:34;8.07;;;4.55;;
11879;SDS011;5999;43.256;27.816;2022-08-19T10:21:03;12.20;;;5.10;;
11879;SDS011;5999;43.256;27.816;2022-08-19T10:23:34;8.05;;;4.88;;
11879;SDS011;5999;43.256;27.816;2022-08-19T10:26:02;15.50;;;5.50;;
11879;SDS011;5999;43.256;27.816;2022-08-19T10:28:31;5.88;;;4.90;;
11879;SDS011;5999;43.256;27.816;2022-08-19T10:31:02;9.38;;;4.90;;
11879;SDS011;5999;43.256;27.816;2022-08-19T10:33:31;9.13;;;4.57;;
11879;SDS011;5999;43.256;27.816;2022-08-19T10:35:59;12.30;;;4.88;;
11879;SDS011;5999;43.256;27.816;2022-08-19T10:38:26;9.18;;;4.50;;
11879;SDS011;5999;43.256;27.816;2022-08-19T10:40:54;8.27;;;4.50;;
11879;SDS011;5999;43.256;27.816;2022-08-19T10:43:21;10.68;;;4.70;;
11879;SDS011;5999;43.256;27.816;2022-08-19T10:45:51;10.65;;;4.85;;
11879;SDS011;5999;43.256;27.816;2022-08-19T10:48:21;9.90;;;4.70;;
11879;SDS011;5999;43.256;27.816;2022-08-19T10:50:48;19.65;;;5.55;;
11879;SDS011;5999;43.256;27.816;2022-08-19T10:53:33;9.10;;;4.65;;
11879;SDS011;5999;43.256;27.816;2022-08-19T10:56:00;15.38;;;4.70;;
11879;SDS011;5999;43.256;27.816;2022-08-19T10:58:45;12.25;;;4.78;;
11879;SDS011;5999;43.256;27.816;2022-08-19T11:01:14;6.95;;;4.50;;
11879;SDS011;5999;43.256;27.816;2022-08-19T11:03:41;6.95;;;4.97;;
11879;SDS011;5999;43.256;27.816;2022-08-19T11:06:10;10.13;;;4.57;;
11879;SDS011;5999;43.256;27.816;2022-08-19T11:08:37;11.80;;;4.72;;
11879;SDS011;5999;43.256;27.816;2022-08-19T11:11:05;9.02;;;4.63;;
11879;SDS011;5999;43.256;27.816;2022-08-19T11:13:33;11.82;;;4.47;;
11879;SDS011;5999;43.256;27.816;2022-08-19T11:16:03;8.68;;;4.35;;
11879;SDS011;5999;43.256;27.816;2022-08-19T11:18:32;9.05;;;4.93;;
11879;SDS011;5999;43.256;27.816;2022-08-19T11:21:05;8.30;;;5.10;;
11879;SDS011;5999;43.256;27.816;2022-08-19T11:23:37;8.75;;;4.65;;
11879;SDS011;5999;43.256;27.816;2022-08-19T11:26:05;6.43;;;4.32;;
11879;SDS011;5999;43.256;27.816;2022-08-19T11:28:32;8.35;;;4.30;;
11879;SDS011;5999;43.256;27.816;2022-08-19T11:30:59;7.63;;;4.05;;
11879;SDS011;5999;43.256;27.816;2022-08-19T11:33:28;10.57;;;4.30;;
11879;SDS011;5999;43.256;27.816;2022-08-19T11:35:56;8.63;;;3.63;;
11879;SDS011;5999;43.256;27.816;2022-08-19T11:38:25;6.22;;;4.35;;
11879;SDS011;5999;43.256;27.816;2022-08-19T11:40:56;5.90;;;3.75;;
11879;SDS011;5999;43.256;27.816;2022-08-19T11:43:23;8.10;;;3.97;;
11879;SDS011;5999;43.256;27.816;2022-08-19T11:45:51;9.50;;;4.30;;
11879;SDS011;5999;43.256;27.816;2022-08-19T11:48:18;12.38;;;4.45;;
11879;SDS011;5999;43.256;27.816;2022-08-19T11:50:47;9.48;;;4.25;;
11879;SDS011;5999;43.256;27.816;2022-08-19T11:53:15;8.93;;;4.07;;
11879;SDS011;5999;43.256;27.816;2022-08-19T11:55:44;9.60;;;4.32;;
11879;SDS011;5999;43.256;27.816;2022-08-19T11:58:12;6.65;;;4.22;;
11879;SDS011;5999;43.256;27.816;2022-08-19T12:00:40;11.23;;;6.05;;
11879;SDS011;5999;43.256;27.816;2022-08-19T12:03:10;13.13;;;5.93;;
11879;SDS011;5999;43.256;27.816;2022-08-19T12:05:37;13.60;;;7.18;;
11879;SDS011;5999;43.256;27.816;2022-08-19T12:08:05;11.98;;;7.20;;
11879;SDS011;5999;43.256;27.816;2022-08-19T12:10:32;9.82;;;6.97;;
11879;SDS011;5999;43.256;27.816;2022-08-19T12:13:00;13.52;;;7.30;;
11879;SDS011;5999;43.256;27.816;2022-08-19T12:15:27;10.60;;;7.28;;
11879;SDS011;5999;43.256;27.816;2022-08-19T12:17:54;9.15;;;5.53;;
11879;SDS011;5999;43.256;27.816;2022-08-19T12:20:23;11.13;;;6.78;;
11879;SDS011;5999;43.256;27.816;2022-08-19T12:22:51;11.48;;;7.57;;
11879;SDS011;5999;43.256;27.816;2022-08-19T12:25:18;4.03;;;2.80;;
11879;SDS011;5999;43.256;27.816;2022-08-19T12:27:45;14.07;;;7.68;;
11879;SDS011;5999;43.256;27.816;2022-08-19T12:30:13;11.90;;;6.43;;
11879;SDS011;5999;43.256;27.816;2022-08-19T12:32:40;8.18;;;5.93;;
11879;SDS011;5999;43.256;27.816;2022-08-19T12:35:07;6.82;;;5.53;;
11879;SDS011;5999;43.256;27.816;2022-08-19T12:37:37;11.00;;;6.18;;
11879;SDS011;5999;43.256;27.816;2022-08-19T12:40:04;13.35;;;6.95;;
11879;SDS011;5999;43.256;27.816;2022-08-19T12:42:32;10.00;;;7.88;;
11879;SDS011;5999;43.256;27.816;2022-08-19T12:44:59;8.75;;;5.53;;
11879;SDS011;5999;43.256;27.816;2022-08-19T12:47:27;18.42;;;7.35;;
11879;SDS011;5999;43.256;27.816;2022-08-19T12:49:55;10.82;;;6.30;;
11879;SDS011;5999;43.256;27.816;2022-08-19T12:52:23;9.77;;;7.10;;
11879;SDS011;5999;43.256;27.816;2022-08-19T12:54:52;11.70;;;6.72;;
11879;SDS011;5999;43.256;27.816;2022-08-19T12:57:20;12.88;;;6.30;;
11879;SDS011;5999;43.256;27.816;2022-08-19T13:00:04;8.57;;;7.13;;
11879;SDS011;5999;43.256;27.816;2022-08-19T13:02:51;15.07;;;8.05;;
11879;SDS011;5999;43.256;27.816;2022-08-19T13:05:19;8.13;;;4.20;;
11879;SDS011;5999;43.256;27.816;2022-08-19T13:07:48;14.95;;;7.78;;
11879;SDS011;5999;43.256;27.816;2022-08-19T13:10:17;15.50;;;7.82;;
11879;SDS011;5999;43.256;27.816;2022-08-19T13:12:45;14.75;;;7.57;;
11879;SDS011;5999;43.256;27.816;2022-08-19T13:15:14;7.00;;;5.00;;
11879;SDS011;5999;43.256;27.816;2022-08-19T13:17:45;14.38;;;7.43;;
11879;SDS011;5999;43.256;27.816;2022-08-19T13:20:15;11.57;;;7.53;;
11879;SDS011;5999;43.256;27.816;2022-08-19T13:22:44;9.35;;;6.80;;
11879;SDS011;5999;43.256;27.816;2022-08-19T13:25:11;8.10;;;5.05;;
11879;SDS011;5999;43.256;27.816;2022-08-19T13:27:39;16.83;;;6.57;;
11879;SDS011;5999;43.256;27.816;2022-08-19T13:30:08;10.48;;;7.30;;
11879;SDS011;5999;43.256;27.816;2022-08-19T13:32:54;14.43;;;6.95;;
11879;SDS011;5999;43.256;27.816;2022-08-19T13:35:37;9.20;;;6.43;;
11879;SDS011;5999;43.256;27.816;2022-08-19T13:38:05;9.75;;;5.32;;
11879;SDS011;5999;43.256;27.816;2022-08-19T13:40:32;9.93;;;6.63;;
11879;SDS011;5999;43.256;27.816;2022-08-19T13:43:01;17.80;;;6.57;;
11879;SDS011;5999;43.256;27.816;2022-08-19T13:45:30;9.60;;;6.10;;
11879;SDS011;5999;43.256;27.816;2022-08-19T13:47:59;11.52;;;5.55;;
11879;SDS011;5999;43.256;27.816;2022-08-19T13:50:32;9.30;;;6.45;;
11879;SDS011;5999;43.256;27.816;2022-08-19T13:53:01;14.98;;;6.85;;
11879;SDS011;5999;43.256;27.816;2022-08-19T13:55:29;8.57;;;6.22;;
11879;SDS011;5999;43.256;27.816;2022-08-19T13:57:57;11.80;;;6.90;;
11879;SDS011;5999;43.256;27.816;2022-08-19T14:00:27;13.27;;;6.95;;
11879;SDS011;5999;43.256;27.816;2022-08-19T14:02:57;10.88;;;7.15;;
11879;SDS011;5999;43.256;27.816;2022-08-19T14:05:25;12.80;;;7.45;;
11879;SDS011;5999;43.256;27.816;2022-08-19T14:07:53;10.30;;;6.15;;
11879;SDS011;5999;43.256;27.816;2022-08-19T14:10:22;10.60;;;6.28;;
11879;SDS011;5999;43.256;27.816;2022-08-19T14:12:51;14.82;;;7.20;;
11879;SDS011;5999;43.256;27.816;2022-08-19T14:15:20;17.30;;;6.88;;
11879;SDS011;5999;43.256;27.816;2022-08-19T14:17:48;13.38;;;5.60;;
11879;SDS011;5999;43.256;27.816;2022-08-19T14:20:15;15.38;;;7.00;;
11879;SDS011;5999;43.256;27.816;2022-08-19T14:22:43;7.60;;;5.00;;
11879;SDS011;5999;43.256;27.816;2022-08-19T14:25:12;15.40;;;5.72;;
11879;SDS011;5999;43.256;27.816;2022-08-19T14:27:41;11.68;;;5.60;;
11879;SDS011;5999;43.256;27.816;2022-08-19T14:30:10;10.80;;;7.60;;
11879;SDS011;5999;43.256;27.816;2022-08-19T14:32:39;11.10;;;5.72;;
11879;SDS011;5999;43.256;27.816;2022-08-19T14:35:08;10.40;;;6.25;;
11879;SDS011;5999;43.256;27.816;2022-08-19T14:37:37;12.05;;;6.88;;
11879;SDS011;5999;43.256;27.816;2022-08-19T14:40:04;6.80;;;5.63;;
11879;SDS011;5999;43.256;27.816;2022-08-19T14:42:32;7.60;;;3.88;;
11879;SDS011;5999;43.256;27.816;2022-08-19T14:45:01;9.25;;;6.70;;
11879;SDS011;5999;43.256;27.816;2022-08-19T14:47:30;8.23;;;6.25;;
11879;SDS011;5999;43.256;27.816;2022-08-19T14:49:56;13.13;;;6.78;;